Time;durP1;ratioP1;P1;durP2;ratioP2;P2;SDS_P1;SDS_P2;PMS_P1;PMS_P2;Temp;Humidity;BMP_temperature;BMP_pressure;BME280_temperature;BME280_humidity;BME280_pressure;Samples;Min_cycle;Max_cycle;Signal;HPM_P1;HPM_P2
2022/04/14 00:01:46;;;;;;;10.70;9.60;;;13.90;1.00;;;;;;5097722;28;20527;-64
2022/04/14 00:04:11;;;;;;;10.97;8.63;;;13.90;1.00;;;;;;5096925;28;20230;-64
2022/04/14 00:06:37;;;;;;;12.83;8.27;;;13.80;1.00;;;;;;5097218;28;20194;-63
2022/04/14 00:09:03;;;;;;;12.03;8.87;;;13.90;1.00;;;;;;5100489;28;20216;-64
2022/04/14 00:11:29;;;;;;;10.63;9.17;;;14.00;1.00;;;;;;5093548;28;20175;-64
2022/04/14 00:13:55;;;;;;;9.83;8.83;;;13.90;1.00;;;;;;5109693;28;20186;-64
2022/04/14 00:16:20;;;;;;;14.60;8.73;;;13.90;1.00;;;;;;5107734;28;20642;-63
2022/04/14 00:18:46;;;;;;;11.50;9.47;;;13.90;1.00;;;;;;5094690;28;20444;-63
2022/04/14 00:21:11;;;;;;;8.97;8.07;;;13.90;1.00;;;;;;5095068;28;20179;-63
2022/04/14 00:23:37;;;;;;;10.23;9.20;;;13.90;1.00;;;;;;5102134;28;20584;-65
2022/04/14 00:26:05;;;;;;;9.80;7.83;;;13.90;1.00;;;;;;5102677;28;20244;-65
2022/04/14 00:28:31;;;;;;;10.27;7.77;;;;;;;;;;5104821;28;20221;-63
2022/04/14 00:30:59;;;;;;;9.40;7.40;;;13.90;1.00;;;;;;5104349;28;20507;-64
2022/04/14 00:33:25;;;;;;;10.30;8.20;;;13.90;1.00;;;;;;5103765;28;20771;-64
2022/04/14 00:35:52;;;;;;;8.87;7.93;;;13.90;1.00;;;;;;5097957;28;20854;-64
2022/04/14 00:38:17;;;;;;;11.90;7.90;;;13.90;1.00;;;;;;5105219;28;20439;-64
2022/04/14 00:40:43;;;;;;;10.20;7.63;;;13.90;1.00;;;;;;5100724;28;20520;-63
2022/04/14 00:43:09;;;;;;;9.10;7.37;;;13.90;1.00;;;;;;5106318;28;20463;-63
2022/04/14 00:45:35;;;;;;;10.37;7.47;;;13.80;1.00;;;;;;5098633;28;20883;-64
2022/04/14 00:48:01;;;;;;;9.90;7.30;;;13.80;1.00;;;;;;5104370;28;20475;-63
2022/04/14 00:50:26;;;;;;;9.53;7.93;;;13.80;1.00;;;;;;5102785;28;20650;-65
2022/04/14 00:52:54;;;;;;;12.30;8.07;;;13.80;1.00;;;;;;5106277;28;20451;-63
2022/04/14 00:55:19;;;;;;;8.27;7.00;;;13.80;1.00;;;;;;5109124;28;20366;-63
2022/04/14 00:57:45;;;;;;;10.43;6.70;;;13.70;1.00;;;;;;5103136;28;20964;-64
2022/04/14 01:00:11;;;;;;;6.80;6.10;;;13.70;1.00;;;;;;5109784;28;20662;-64
2022/04/14 01:02:37;;;;;;;7.70;6.70;;;13.70;1.00;;;;;;5107659;27;21462;-63
2022/04/14 01:05:04;;;;;;;7.87;7.07;;;13.70;1.00;;;;;;5101604;28;20472;-63
2022/04/14 01:07:30;;;;;;;10.50;7.80;;;13.70;1.00;;;;;;5105387;28;20234;-62
2022/04/14 01:09:56;;;;;;;8.00;7.13;;;13.70;1.00;;;;;;5103019;28;22703;-62
2022/04/14 01:12:22;;;;;;;7.80;6.80;;;13.80;1.00;;;;;;5105122;28;20213;-63
2022/04/14 01:14:48;;;;;;;8.27;7.30;;;13.80;1.00;;;;;;5091567;28;20433;-64
2022/04/14 01:17:13;;;;;;;10.60;7.23;;;13.70;1.00;;;;;;5094575;28;20458;-65
2022/04/14 01:19:39;;;;;;;11.90;7.07;;;13.70;1.00;;;;;;5098768;28;20631;-64
2022/04/14 01:22:16;;;;;;;9.77;7.50;;;13.70;1.00;;;;;;5097178;28;20530;-63
2022/04/14 01:24:42;;;;;;;8.50;6.73;;;13.70;1.00;;;;;;5098148;28;20925;-63
2022/04/14 01:27:09;;;;;;;8.67;6.93;;;13.60;1.00;;;;;;5110390;28;20503;-63
2022/04/14 01:29:34;;;;;;;10.50;7.50;;;13.60;1.00;;;;;;5094607;28;20552;-64
2022/04/14 01:32:02;;;;;;;10.70;6.63;;;13.60;1.00;;;;;;5098542;28;20448;-65
2022/04/14 01:34:30;;;;;;;9.63;6.50;;;13.60;1.00;;;;;;5106620;28;20670;-64
2022/04/14 01:36:56;;;;;;;12.40;7.20;;;13.60;1.00;;;;;;5104834;28;20534;-63
2022/04/14 01:39:22;;;;;;;7.03;6.10;;;13.60;1.00;;;;;;5099587;28;20585;-64
2022/04/14 01:41:48;;;;;;;7.70;6.70;;;13.50;1.00;;;;;;5107045;28;20519;-63
2022/04/14 01:44:14;;;;;;;8.93;7.30;;;13.40;1.00;;;;;;5108855;28;21004;-65
2022/04/14 01:46:41;;;;;;;8.93;7.27;;;13.50;1.00;;;;;;5097710;28;20178;-64
2022/04/14 01:49:07;;;;;;;11.10;7.03;;;;;;;;;;5096940;28;20269;-63
2022/04/14 01:51:33;;;;;;;9.97;7.73;;;13.60;1.00;;;;;;5099289;28;20451;-64
2022/04/14 01:53:58;;;;;;;10.53;7.07;;;13.60;1.00;;;;;;5094000;28;20444;-64
2022/04/14 01:56:24;;;;;;;9.30;7.10;;;13.60;1.00;;;;;;5092709;28;20540;-65
2022/04/14 01:58:50;;;;;;;9.87;6.97;;;13.70;1.00;;;;;;5098286;28;20182;-64
2022/04/14 02:01:16;;;;;;;8.60;7.70;;;13.60;1.00;;;;;;5097546;28;20191;-64
2022/04/14 02:03:42;;;;;;;9.67;7.17;;;13.60;1.00;;;;;;5099967;28;20487;-65
2022/04/14 02:06:09;;;;;;;9.00;7.60;;;13.60;1.00;;;;;;5100353;28;20448;-65
2022/04/14 02:08:35;;;;;;;10.10;7.47;;;;;;;;;;5113934;28;20193;-65
2022/04/14 02:11:04;;;;;;;9.13;7.20;;;13.50;1.00;;;;;;5099982;28;20475;-65
2022/04/14 02:13:30;;;;;;;13.33;6.80;;;13.60;1.00;;;;;;5104716;28;20440;-64
2022/04/14 02:15:56;;;;;;;8.10;6.90;;;13.50;1.00;;;;;;5109753;28;20451;-63
2022/04/14 02:18:21;;;;;;;9.00;7.23;;;13.50;1.00;;;;;;5102956;28;20439;-62
2022/04/14 02:20:47;;;;;;;10.13;6.97;;;13.50;1.00;;;;;;5100742;28;20183;-63
2022/04/14 02:23:13;;;;;;;8.80;6.70;;;;;;;;;;5104664;28;20192;-63
2022/04/14 02:25:38;;;;;;;7.33;6.70;;;13.50;1.00;;;;;;5100072;28;20239;-63
2022/04/14 02:28:04;;;;;;;10.30;7.37;;;13.40;1.00;;;;;;5112302;28;20451;-63
2022/04/14 02:30:30;;;;;;;9.07;7.90;;;13.40;1.00;;;;;;5098918;28;20209;-64
2022/04/14 02:32:56;;;;;;;9.33;6.67;;;13.40;1.00;;;;;;5105861;28;20182;-65
2022/04/14 02:35:21;;;;;;;8.23;6.83;;;13.40;1.00;;;;;;5107558;28;20310;-64
2022/04/14 02:37:47;;;;;;;7.63;6.37;;;13.40;1.00;;;;;;5107882;28;20988;-64
2022/04/14 02:40:13;;;;;;;8.47;7.53;;;13.40;1.00;;;;;;5108279;27;20252;-63
2022/04/14 02:42:40;;;;;;;12.37;8.40;;;13.40;1.00;;;;;;5108002;28;20614;-65
2022/04/14 02:45:06;;;;;;;8.83;7.83;;;13.20;1.00;;;;;;5108490;28;20484;-63
2022/04/14 02:47:31;;;;;;;9.60;8.03;;;13.10;1.00;;;;;;5107197;28;20500;-63
2022/04/14 02:49:57;;;;;;;14.03;9.00;;;;;;;;;;5100144;28;21270;-63
2022/04/14 02:52:23;;;;;;;10.13;8.27;;;13.00;1.00;;;;;;5099170;28;20193;-64
2022/04/14 02:54:48;;;;;;;13.10;9.23;;;12.90;1.00;;;;;;5097285;28;20436;-62
2022/04/14 02:57:14;;;;;;;13.73;9.27;;;12.70;1.00;;;;;;5106204;28;20179;-63
2022/04/14 02:59:39;;;;;;;14.37;9.57;;;12.80;1.00;;;;;;5110994;28;20181;-63
2022/04/14 03:02:05;;;;;;;9.83;8.00;;;12.60;1.00;;;;;;5106478;28;20647;-63
2022/04/14 03:04:31;;;;;;;8.73;7.53;;;12.70;1.00;;;;;;5101645;28;20605;-63
2022/04/14 03:06:57;;;;;;;10.83;8.80;;;12.90;1.00;;;;;;5109372;28;20198;-63
2022/04/14 03:09:23;;;;;;;11.00;8.50;;;12.70;1.00;;;;;;5108895;28;20182;-62
2022/04/14 03:11:49;;;;;;;10.73;9.63;;;12.60;1.00;;;;;;5100511;28;20801;-62
2022/04/14 03:14:15;;;;;;;11.17;8.37;;;;;;;;;;5101946;28;20444;-64
2022/04/14 03:16:41;;;;;;;11.77;8.30;;;12.60;1.00;;;;;;5100651;28;20175;-62
2022/04/14 03:19:07;;;;;;;13.03;9.33;;;;;;;;;;5098936;28;20955;-63
2022/04/14 03:21:33;;;;;;;10.50;8.07;;;;;;;;;;5107041;28;20190;-63
2022/04/14 03:23:58;;;;;;;11.00;8.90;;;12.50;1.00;;;;;;5097360;28;20448;-65
2022/04/14 03:26:24;;;;;;;11.40;9.00;;;12.40;1.00;;;;;;5099148;28;20517;-63
2022/04/14 03:28:49;;;;;;;10.80;8.53;;;12.40;1.00;;;;;;5106498;28;20222;-63
2022/04/14 03:31:15;;;;;;;10.70;9.30;;;12.30;1.00;;;;;;5103975;28;20327;-64
2022/04/14 03:33:40;;;;;;;11.70;9.10;;;12.30;1.00;;;;;;5109509;28;20178;-63
2022/04/14 03:36:06;;;;;;;11.80;10.60;;;12.30;1.00;;;;;;5104683;28;20178;-64
2022/04/14 03:38:32;;;;;;;9.33;8.40;;;;;;;;;;5094413;28;20209;-62
2022/04/14 03:40:59;;;;;;;10.93;8.20;;;12.30;1.00;;;;;;5103823;28;20431;-63
2022/04/14 03:43:25;;;;;;;8.40;7.67;;;14.20;1.00;;;;;;5106528;28;20444;-62
2022/04/14 03:45:51;;;;;;;12.87;9.37;;;12.20;1.00;;;;;;5098195;28;20436;-60
2022/04/14 03:48:17;;;;;;;9.80;8.27;;;12.20;1.00;;;;;;5099673;28;20481;-59
2022/04/14 03:50:43;;;;;;;11.33;8.60;;;;;;;;;;5106135;28;20470;-61
2022/04/14 03:53:08;;;;;;;9.90;8.90;;;12.20;1.00;;;;;;5103051;28;20250;-61
2022/04/14 03:55:34;;;;;;;11.57;9.17;;;12.10;1.00;;;;;;5102520;28;20527;-59
2022/04/14 03:57:59;;;;;;;13.97;8.97;;;12.10;1.00;;;;;;5112126;28;20248;-61
2022/04/14 04:00:25;;;;;;;10.10;9.10;;;12.10;1.00;;;;;;5105176;28;20178;-61
2022/04/14 04:02:51;;;;;;;13.43;8.33;;;12.10;1.00;;;;;;5102986;27;20186;-60
2022/04/14 04:05:17;;;;;;;8.77;7.90;;;12.00;1.00;;;;;;5094714;28;20882;-64
2022/04/14 04:07:43;;;;;;;10.57;8.30;;;;;;;;;;5097493;28;20190;-65
2022/04/14 04:10:08;;;;;;;8.93;7.97;;;11.90;1.00;;;;;;5094232;28;20638;-64
2022/04/14 04:12:34;;;;;;;8.77;7.73;;;11.90;1.00;;;;;;5095533;28;20532;-65
2022/04/14 04:15:00;;;;;;;11.13;8.37;;;11.80;1.00;;;;;;5102038;28;20174;-65
2022/04/14 04:17:25;;;;;;;11.97;8.40;;;11.80;1.00;;;;;;5099086;28;20619;-64
2022/04/14 04:19:51;;;;;;;19.13;8.10;;;11.80;1.00;;;;;;5100231;28;20179;-65
2022/04/14 04:22:16;;;;;;;10.07;8.57;;;11.80;1.00;;;;;;5102246;28;20227;-64
2022/04/14 04:24:42;;;;;;;13.50;7.70;;;;;;;;;;5107591;28;20201;-63
2022/04/14 04:27:08;;;;;;;12.93;7.73;;;11.80;1.00;;;;;;5110998;28;20190;-65
2022/04/14 04:29:34;;;;;;;8.43;7.60;;;11.70;1.00;;;;;;5103633;28;20458;-65
2022/04/14 04:32:00;;;;;;;9.27;7.77;;;11.80;1.00;;;;;;5101386;28;20441;-63
2022/04/14 04:34:26;;;;;;;9.97;8.20;;;11.70;1.00;;;;;;5098543;28;20489;-63
2022/04/14 04:36:52;;;;;;;14.63;8.17;;;11.80;1.00;;;;;;5101132;28;20512;-63
2022/04/14 04:39:18;;;;;;;12.93;8.83;;;11.80;1.00;;;;;;5107026;28;20451;-65
2022/04/14 04:41:43;;;;;;;9.70;8.60;;;11.90;1.00;;;;;;5105844;28;20643;-63
2022/04/14 04:44:09;;;;;;;10.60;9.20;;;11.90;1.00;;;;;;5098597;28;20182;-63
2022/04/14 04:46:35;;;;;;;11.60;8.90;;;11.90;1.00;;;;;;5102749;28;20174;-64
2022/04/14 04:49:01;;;;;;;11.83;8.80;;;11.90;1.00;;;;;;5110138;28;21011;-64
2022/04/14 04:51:27;;;;;;;10.70;8.10;;;11.90;1.00;;;;;;5104398;28;20524;-64
2022/04/14 04:53:53;;;;;;;11.30;9.37;;;11.90;1.00;;;;;;5100290;28;20182;-64
2022/04/14 04:56:19;;;;;;;11.80;8.90;;;11.90;1.00;;;;;;5100507;28;20443;-63
2022/04/14 04:58:45;;;;;;;11.73;9.20;;;12.00;1.00;;;;;;5094769;28;20245;-65
2022/04/14 05:01:12;;;;;;;11.43;9.07;;;12.10;1.00;;;;;;5093716;28;20189;-66
2022/04/14 05:03:38;;;;;;;13.13;9.60;;;;;;;;;;5099454;28;20479;-64
2022/04/14 05:06:06;;;;;;;12.13;9.20;;;12.20;1.00;;;;;;5107779;28;20457;-66
2022/04/14 05:08:32;;;;;;;14.57;9.40;;;12.20;1.00;;;;;;5100712;28;20442;-65
2022/04/14 05:10:57;;;;;;;13.00;9.70;;;12.40;1.00;;;;;;5097767;28;20483;-65
2022/04/14 05:13:23;;;;;;;14.67;9.80;;;12.50;1.00;;;;;;5099495;28;20261;-66
2022/04/14 05:15:48;;;;;;;12.43;9.03;;;12.60;1.00;;;;;;5104091;28;20192;-66
2022/04/14 05:18:14;;;;;;;11.53;8.73;;;12.70;1.00;;;;;;5093022;28;20183;-65
2022/04/14 05:20:42;;;;;;;17.17;9.83;;;12.80;1.00;;;;;;5090687;28;20435;-64
2022/04/14 05:23:09;;;;;;;15.30;8.60;;;12.90;1.00;;;;;;5089069;28;20178;-64
2022/04/14 05:25:34;;;;;;;14.50;9.67;;;12.90;1.00;;;;;;5097599;28;20436;-64
2022/04/14 05:28:00;;;;;;;12.27;10.00;;;13.00;1.00;;;;;;5095939;28;20998;-64
2022/04/14 05:30:26;;;;;;;10.03;9.07;;;13.10;1.00;;;;;;5092419;28;20464;-65
2022/04/14 05:32:51;;;;;;;12.23;9.50;;;13.20;1.00;;;;;;5106577;28;20635;-65
2022/04/14 05:35:17;;;;;;;13.43;9.17;;;13.30;1.00;;;;;;5106257;28;20183;-65
2022/04/14 05:37:42;;;;;;;12.30;8.90;;;13.30;1.00;;;;;;5106594;28;20437;-64
2022/04/14 05:40:11;;;;;;;13.53;9.80;;;13.50;1.00;;;;;;5110442;28;20192;-66
2022/04/14 05:42:37;;;;;;;12.10;9.40;;;13.50;1.00;;;;;;5103291;28;20174;-63
2022/04/14 05:45:03;;;;;;;11.57;9.60;;;;;;;;;;5095182;28;20888;-64
2022/04/14 05:47:28;;;;;;;12.60;9.20;;;13.70;1.00;;;;;;5110564;28;20182;-66
2022/04/14 05:49:54;;;;;;;10.63;9.07;;;13.80;1.00;;;;;;5102442;28;20467;-65
2022/04/14 05:52:20;;;;;;;15.63;9.60;;;13.90;1.00;;;;;;5108286;28;20262;-65
2022/04/14 05:54:47;;;;;;;16.43;9.27;;;14.10;1.00;;;;;;5093319;28;20183;-65
2022/04/14 05:57:13;;;;;;;12.37;8.67;;;14.00;1.00;;;;;;5090930;28;20436;-65
2022/04/14 05:59:40;;;;;;;16.60;10.10;;;14.10;1.00;;;;;;5096530;28;20840;-64
2022/04/14 06:02:05;;;;;;;11.80;9.10;;;14.30;1.00;;;;;;5101932;28;20530;-65
2022/04/14 06:04:31;;;;;;;16.13;8.40;;;14.40;1.00;;;;;;5099412;28;20559;-63
2022/04/14 06:06:56;;;;;;;13.40;8.80;;;14.50;1.00;;;;;;5090587;28;20676;-64
2022/04/14 06:09:22;;;;;;;10.63;9.53;;;14.70;1.00;;;;;;5090365;28;20265;-64
2022/04/14 06:11:47;;;;;;;9.10;7.73;;;15.00;1.00;;;;;;5091500;28;20221;-64
2022/04/14 06:14:13;;;;;;;11.40;9.20;;;15.00;1.00;;;;;;5090723;28;20191;-64
2022/04/14 06:16:38;;;;;;;11.33;9.53;;;15.10;1.00;;;;;;5098445;28;20307;-65
2022/04/14 06:19:04;;;;;;;10.57;9.30;;;;;;;;;;5109791;28;20174;-65
2022/04/14 06:21:30;;;;;;;11.40;9.10;;;;;;;;;;5102551;28;20265;-65
2022/04/14 06:23:56;;;;;;;13.03;10.03;;;15.40;1.00;;;;;;5098611;28;20451;-65
2022/04/14 06:26:22;;;;;;;11.10;9.87;;;15.50;1.00;;;;;;5108266;28;20981;-65
2022/04/14 06:28:48;;;;;;;12.70;9.60;;;15.60;1.00;;;;;;5100233;28;20448;-64
2022/04/14 06:31:14;;;;;;;10.10;9.10;;;15.60;1.00;;;;;;5094134;28;20264;-64
2022/04/14 06:33:40;;;;;;;13.00;10.03;;;15.70;1.00;;;;;;5094425;28;20179;-65
2022/04/14 06:36:05;;;;;;;12.17;9.40;;;15.80;1.00;;;;;;5104295;28;20190;-63
2022/04/14 06:38:31;;;;;;;13.53;9.13;;;15.90;1.00;;;;;;5097641;28;20705;-66
2022/04/14 06:40:56;;;;;;;11.67;8.63;;;16.10;1.00;;;;;;5097585;28;20199;-64
2022/04/14 06:43:23;;;;;;;12.77;9.33;;;16.30;1.00;;;;;;5098215;28;20239;-64
2022/04/14 06:45:48;;;;;;;12.70;9.70;;;16.30;1.00;;;;;;5102518;28;20170;-66
2022/04/14 06:48:14;;;;;;;12.47;9.70;;;16.40;1.00;;;;;;5107150;28;20442;-65
2022/04/14 06:50:40;;;;;;;11.23;8.43;;;16.50;1.00;;;;;;5102507;28;20755;-64
2022/04/14 06:53:06;;;;;;;12.33;10.00;;;16.50;1.00;;;;;;5100336;28;20252;-64
2022/04/14 06:55:32;;;;;;;12.40;8.63;;;16.50;1.00;;;;;;5095557;28;20280;-65
2022/04/14 06:57:58;;;;;;;14.43;9.80;;;16.50;1.00;;;;;;5095323;28;20458;-64
2022/04/14 07:00:24;;;;;;;13.90;8.90;;;16.60;1.00;;;;;;5102488;28;20433;-66
2022/04/14 07:02:55;;;;;;;12.70;9.70;;;16.80;1.00;;;;;;5093688;28;20240;-65
2022/04/14 07:05:22;;;;;;;10.90;9.17;;;16.90;1.00;;;;;;5110803;28;20443;-65
2022/04/14 07:07:48;;;;;;;16.13;9.90;;;17.10;1.00;;;;;;5106704;28;20444;-64
2022/04/14 07:10:13;;;;;;;13.33;8.97;;;17.30;1.00;;;;;;5095314;28;21025;-64
2022/04/14 07:12:39;;;;;;;13.70;10.63;;;17.30;1.00;;;;;;5099873;28;20186;-65
2022/04/14 07:15:06;;;;;;;10.93;9.80;;;17.30;1.00;;;;;;5095413;28;20248;-64
2022/04/14 07:17:32;;;;;;;13.20;10.03;;;17.30;1.00;;;;;;5101165;28;20476;-65
2022/04/14 07:19:58;;;;;;;11.97;10.53;;;17.40;1.00;;;;;;5105597;28;20874;-65
2022/04/14 07:22:23;;;;;;;14.83;10.40;;;17.50;1.00;;;;;;5112519;28;20440;-66
2022/04/14 07:24:50;;;;;;;14.43;10.87;;;17.40;1.00;;;;;;5108022;28;20204;-65
2022/04/14 07:27:18;;;;;;;12.90;10.90;;;17.50;1.00;;;;;;5093637;28;20681;-66
2022/04/14 07:29:45;;;;;;;13.37;11.77;;;17.60;1.00;;;;;;5107878;27;20920;-64
2022/04/14 07:32:12;;;;;;;16.40;12.80;;;17.60;1.00;;;;;;5108455;28;20442;-67
2022/04/14 07:34:38;;;;;;;18.10;12.20;;;17.70;1.00;;;;;;5103832;28;20789;-65
2022/04/14 07:37:04;;;;;;;13.53;11.40;;;17.70;1.00;;;;;;5109609;28;20512;-66
2022/04/14 07:39:29;;;;;;;17.40;11.00;;;17.80;1.00;;;;;;5101573;28;20181;-66
2022/04/14 07:41:55;;;;;;;13.77;12.23;;;;;;;;;;5102559;28;20183;-65
2022/04/14 07:44:21;;;;;;;14.10;12.50;;;17.90;1.00;;;;;;5097874;28;20178;-65
2022/04/14 07:46:46;;;;;;;15.37;13.33;;;17.90;1.00;;;;;;5105064;28;20510;-64
2022/04/14 07:49:12;;;;;;;16.43;13.30;;;17.80;1.00;;;;;;5108069;28;20185;-65
2022/04/14 07:51:37;;;;;;;14.63;13.13;;;17.80;1.00;;;;;;5105893;28;20639;-64
2022/04/14 07:54:03;;;;;;;16.23;13.90;;;18.00;1.00;;;;;;5112048;28;20296;-65
2022/04/14 07:56:29;;;;;;;16.60;14.90;;;;;;;;;;5112547;28;20535;-65
2022/04/14 07:58:55;;;;;;;17.43;15.07;;;18.30;1.00;;;;;;5106924;28;20183;-67
2022/04/14 08:01:20;;;;;;;18.13;15.67;;;18.30;1.00;;;;;;5092032;28;20930;-66
2022/04/14 08:03:47;;;;;;;19.30;15.97;;;18.20;1.00;;;;;;5096700;28;20671;-64
2022/04/14 08:06:13;;;;;;;20.47;15.20;;;18.20;1.00;;;;;;5112416;28;20213;-66
2022/04/14 08:08:40;;;;;;;16.30;14.60;;;18.20;1.00;;;;;;5097453;28;20436;-63
2022/04/14 08:11:08;;;;;;;20.97;16.20;;;18.20;1.00;;;;;;5109098;28;20458;-64
2022/04/14 08:13:37;;;;;;;23.03;16.20;;;18.40;1.00;;;;;;5091763;28;21054;-64
2022/04/14 08:16:06;;;;;;;21.07;16.87;;;18.60;1.00;;;;;;5094746;28;20443;-65
2022/04/14 08:18:39;;;;;;;20.60;17.50;;;18.60;1.00;;;;;;5108987;28;20498;-65
2022/04/14 08:21:06;;;;;;;21.43;17.80;;;18.70;1.00;;;;;;5092046;28;20433;-66
2022/04/14 08:23:32;;;;;;;19.53;17.60;;;;;;;;;;5108061;28;20520;-65
2022/04/14 08:25:58;;;;;;;22.13;19.17;;;18.80;1.00;;;;;;5106904;28;20497;-65
2022/04/14 08:28:24;;;;;;;24.67;22.00;;;19.00;1.00;;;;;;5099314;28;20440;-67
2022/04/14 08:30:51;;;;;;;21.87;19.57;;;;;;;;;;5096616;28;20206;-65
2022/04/14 08:33:20;;;;;;;21.80;18.17;;;19.10;1.00;;;;;;5097977;28;20181;-65
2022/04/14 08:35:46;;;;;;;24.03;19.80;;;19.10;1.00;;;;;;5092694;28;20447;-69
2022/04/14 08:38:12;;;;;;;27.13;20.80;;;18.90;1.00;;;;;;5107200;28;20440;-69
2022/04/14 08:40:40;;;;;;;23.77;20.73;;;19.00;1.00;;;;;;5094129;28;20475;-69
2022/04/14 08:43:07;;;;;;;23.53;20.37;;;18.90;1.00;;;;;;5093793;28;20190;-69
2022/04/14 08:45:34;;;;;;;23.83;21.00;;;18.60;1.00;;;;;;5093521;28;20432;-69
2022/04/14 08:48:02;;;;;;;22.40;19.20;;;18.70;1.00;;;;;;5100794;28;20439;-69
2022/04/14 08:50:28;;;;;;;25.47;20.00;;;18.90;1.00;;;;;;5101218;28;20464;-68
2022/04/14 08:52:55;;;;;;;26.73;20.77;;;19.20;1.00;;;;;;5102085;28;20456;-70
2022/04/14 08:55:21;;;;;;;25.23;20.70;;;19.10;1.00;;;;;;5094116;28;20585;-69
2022/04/14 08:57:47;;;;;;;26.00;21.40;;;19.20;1.00;;;;;;5105515;28;20447;-69
2022/04/14 09:00:16;;;;;;;23.40;20.43;;;19.20;1.00;;;;;;5092083;28;20463;-69
2022/04/14 09:02:45;;;;;;;24.30;21.70;;;19.20;1.00;;;;;;5092554;28;20458;-69
2022/04/14 09:05:13;;;;;;;23.03;20.53;;;19.30;1.00;;;;;;5104652;28;20472;-69
2022/04/14 09:07:39;;;;;;;23.90;20.90;;;;;;;;;;5093326;28;20453;-70
2022/04/14 09:10:06;;;;;;;25.90;22.10;;;19.80;1.00;;;;;;5101913;28;20463;-70
2022/04/14 09:12:32;;;;;;;25.53;21.40;;;19.60;1.00;;;;;;5104015;27;20436;-70
2022/04/14 09:15:00;;;;;;;25.07;21.60;;;19.20;1.00;;;;;;5100692;28;20516;-69
2022/04/14 09:17:27;;;;;;;26.80;21.60;;;;;;;;;;5100163;28;20522;-69
2022/04/14 09:19:53;;;;;;;24.20;21.60;;;;;;;;;;5100958;28;20486;-71
2022/04/14 09:22:20;;;;;;;25.00;21.53;;;;;;;;;;5100400;28;20436;-68
2022/04/14 09:24:52;;;;;;;27.90;22.80;;;20.40;1.00;;;;;;5105341;28;21016;-60
2022/04/14 09:27:31;;;;;;;29.23;22.27;;;20.30;1.00;;;;;;5110459;28;20444;-60
2022/04/14 09:30:00;;;;;;;26.03;23.33;;;20.00;1.00;;;;;;5095163;28;20471;-61
2022/04/14 09:32:42;;;;;;;24.33;21.13;;;20.00;1.00;;;;;;5098382;28;20479;-62
2022/04/14 09:35:19;;;;;;;26.20;21.20;;;20.00;1.00;;;;;;5109358;28;20474;-60
2022/04/14 09:37:45;;;;;;;23.73;21.10;;;20.30;1.00;;;;;;5106162;28;20522;-61
2022/04/14 09:40:11;;;;;;;28.77;21.50;;;20.20;1.00;;;;;;5102825;28;20550;-61
2022/04/14 09:42:39;;;;;;;27.10;20.83;;;20.10;1.00;;;;;;5090569;28;20473;-60
2022/04/14 09:45:25;;;;;;;31.57;22.60;;;20.20;1.00;;;;;;5092806;28;20451;-61
2022/04/14 09:47:52;;;;;;;27.33;21.73;;;19.90;1.00;;;;;;5100823;28;20444;-59
2022/04/14 09:50:25;;;;;;;29.87;22.83;;;19.60;1.00;;;;;;5094089;28;20471;-61
2022/04/14 09:53:12;;;;;;;26.90;21.77;;;19.60;1.00;;;;;;5109238;28;20472;-61
2022/04/14 09:55:40;;;;;;;27.73;23.00;;;19.70;1.00;;;;;;5109838;28;20465;-61
2022/04/14 09:58:06;;;;;;;28.73;22.20;;;19.80;1.00;;;;;;5095658;28;20436;-61
2022/04/14 10:00:39;;;;;;;24.97;19.73;;;19.80;1.00;;;;;;5101976;28;20440;-61
2022/04/14 10:03:29;;;;;;;23.67;21.03;;;20.30;1.00;;;;;;5095300;28;20183;-61
2022/04/14 10:05:55;;;;;;;28.07;22.00;;;20.60;1.00;;;;;;5084398;28;20958;-61
2022/04/14 10:08:24;;;;;;;24.77;22.10;;;21.00;1.00;;;;;;5091033;28;20468;-62
2022/04/14 10:11:03;;;;;;;23.60;20.90;;;20.80;1.00;;;;;;5104962;28;20468;-62
2022/04/14 10:13:43;;;;;;;27.93;22.10;;;20.50;1.00;;;;;;5090909;28;20440;-63
2022/04/14 10:16:09;;;;;;;25.97;22.07;;;20.40;1.00;;;;;;5107001;28;20439;-60
2022/04/14 10:18:34;;;;;;;24.60;21.10;;;20.40;1.00;;;;;;5092662;28;20436;-62
2022/04/14 10:21:00;;;;;;;27.57;22.87;;;20.10;1.00;;;;;;5110433;28;20200;-61
2022/04/14 10:23:28;;;;;;;27.23;21.37;;;20.10;1.00;;;;;;5101406;28;20624;-61
2022/04/14 10:25:55;;;;;;;25.23;20.77;;;20.30;1.00;;;;;;5097572;28;20235;-61
2022/04/14 10:28:21;;;;;;;25.50;22.13;;;20.40;1.00;;;;;;5094263;28;20454;-60
2022/04/14 10:30:49;;;;;;;26.73;22.73;;;20.40;1.00;;;;;;5094987;28;20551;-61
2022/04/14 10:33:14;;;;;;;23.27;20.73;;;20.20;1.00;;;;;;5095100;28;20238;-59
2022/04/14 10:35:40;;;;;;;24.37;21.70;;;20.10;1.00;;;;;;5094310;28;20466;-60
2022/04/14 10:38:15;;;;;;;26.00;22.60;;;20.40;1.00;;;;;;5100719;28;20214;-62
2022/04/14 10:40:51;;;;;;;21.73;19.33;;;20.70;1.00;;;;;;5092276;28;20541;-61
2022/04/14 10:43:19;;;;;;;25.37;22.10;;;20.80;1.00;;;;;;5093077;28;20524;-61
2022/04/14 10:45:54;;;;;;;25.10;21.70;;;20.80;1.00;;;;;;5112811;27;20508;-63
2022/04/14 10:48:31;;;;;;;23.57;21.17;;;20.50;1.00;;;;;;5097420;28;20436;-62
2022/04/14 10:51:25;;;;;;;25.10;21.57;;;20.60;1.00;;;;;;5112472;28;20459;-62
2022/04/14 10:54:11;;;;;;;23.90;20.50;;;21.00;1.00;;;;;;5104773;28;20434;-63
2022/04/14 10:56:36;;;;;;;24.83;20.50;;;20.90;1.00;;;;;;5094129;28;20451;-61
2022/04/14 10:59:11;;;;;;;26.43;21.03;;;21.10;1.00;;;;;;5107009;28;20439;-61
2022/04/14 11:01:45;;;;;;;23.90;21.50;;;21.10;1.00;;;;;;5110701;28;20178;-62
2022/04/14 11:04:42;;;;;;;21.63;19.30;;;20.90;1.00;;;;;;5109437;28;20797;-62
2022/04/14 11:07:11;;;;;;;24.57;20.13;;;20.90;1.00;;;;;;5107882;28;20850;-62
2022/04/14 11:09:42;;;;;;;22.67;19.67;;;20.80;1.00;;;;;;5108134;28;20443;-62
2022/04/14 11:12:51;;;;;;;38.90;20.60;;;20.80;1.00;;;;;;5104222;28;20494;-61
2022/04/14 11:15:32;;;;;;;22.07;19.87;;;20.60;1.00;;;;;;5108091;28;20479;-62
2022/04/14 11:18:04;;;;;;;20.60;17.47;;;20.70;1.00;;;;;;5113717;28;20512;-62
2022/04/14 11:20:37;;;;;;;24.53;19.03;;;20.80;1.00;;;;;;5102301;28;21000;-62
2022/04/14 11:23:13;;;;;;;23.83;18.73;;;21.60;1.00;;;;;;5098388;28;20433;-63
2022/04/14 11:25:38;;;;;;;20.80;17.43;;;21.70;1.00;;;;;;5096563;28;20452;-64
2022/04/14 11:28:26;;;;;;;21.77;17.40;;;22.00;1.00;;;;;;5095976;28;20824;-62
2022/04/14 11:30:59;;;;;;;23.73;19.90;;;22.10;1.00;;;;;;5110830;28;20214;-62
2022/04/14 11:33:31;;;;;;;22.03;18.93;;;22.10;1.00;;;;;;5109505;28;20913;-63
2022/04/14 11:36:16;;;;;;;18.17;16.23;;;22.10;1.00;;;;;;5106387;28;20437;-62
2022/04/14 11:39:01;;;;;;;18.37;16.47;;;22.00;1.00;;;;;;5105750;28;20535;-62
2022/04/14 11:41:35;;;;;;;17.53;14.90;;;21.80;1.00;;;;;;5093564;28;20472;-62
2022/04/14 11:44:24;;;;;;;18.27;15.87;;;21.80;1.00;;;;;;5101836;28;20486;-64
2022/04/14 11:46:54;;;;;;;16.60;15.10;;;22.40;1.00;;;;;;5106505;28;20444;-61
2022/04/14 11:49:24;;;;;;;18.70;16.90;;;22.10;1.00;;;;;;5107456;28;21038;-60
2022/04/14 11:52:10;;;;;;;17.83;15.70;;;22.50;1.00;;;;;;5099947;28;20461;-60
2022/04/14 11:54:37;;;;;;;16.77;14.80;;;23.00;1.00;;;;;;5101395;28;20428;-60
2022/04/14 11:57:09;;;;;;;16.53;14.97;;;23.40;1.00;;;;;;5107283;28;20428;-60
2022/04/14 11:59:42;;;;;;;15.97;14.40;;;23.10;1.00;;;;;;5100820;28;20440;-60
2022/04/14 12:02:18;;;;;;;16.40;14.87;;;22.90;1.00;;;;;;5099506;28;20424;-60
2022/04/14 12:04:51;;;;;;;15.83;14.03;;;22.90;1.00;;;;;;5108160;28;20459;-62
2022/04/14 12:07:19;;;;;;;17.37;15.70;;;22.90;1.00;;;;;;5107191;28;20432;-60
2022/04/14 12:09:46;;;;;;;19.60;15.33;;;22.80;1.00;;;;;;5101003;28;20429;-61
2022/04/14 12:12:19;;;;;;;17.10;15.50;;;;;;;;;;5101922;28;20710;-61
2022/04/14 12:14:47;;;;;;;16.87;15.30;;;23.10;1.00;;;;;;5080332;28;20470;-60
2022/04/14 12:17:14;;;;;;;15.83;14.33;;;23.10;1.00;;;;;;5106039;28;20912;-61
2022/04/14 12:19:50;;;;;;;18.27;14.50;;;23.20;1.00;;;;;;5107381;28;20451;-61
2022/04/14 12:22:16;;;;;;;14.77;13.27;;;23.30;1.00;;;;;;5106878;28;20451;-59
2022/04/14 12:24:49;;;;;;;15.10;13.10;;;23.30;1.00;;;;;;5106346;28;20941;-60
2022/04/14 12:27:23;;;;;;;17.67;12.90;;;23.30;1.00;;;;;;5102299;28;20189;-60
2022/04/14 12:29:51;;;;;;;12.37;11.07;;;23.40;1.00;;;;;;5099398;28;20499;-60
2022/04/14 12:32:17;;;;;;;13.43;12.23;;;23.10;1.00;;;;;;5099312;28;20423;-61
2022/04/14 12:34:44;;;;;;;13.33;12.00;;;23.20;1.00;;;;;;5100771;28;20440;-60
2022/04/14 12:37:18;;;;;;;11.53;10.57;;;22.90;1.00;;;;;;5102956;28;20534;-62
2022/04/14 12:40:08;;;;;;;13.77;12.00;;;22.90;1.00;;;;;;5105590;28;20448;-60
2022/04/14 12:42:35;;;;;;;12.77;10.80;;;22.90;1.00;;;;;;5104503;28;20443;-61
2022/04/14 12:45:09;;;;;;;11.60;10.50;;;22.80;1.00;;;;;;5105570;28;20432;-61
2022/04/14 12:47:35;;;;;;;12.20;10.40;;;22.90;1.00;;;;;;5102974;28;20468;-61
2022/04/14 12:50:03;;;;;;;11.57;10.40;;;22.90;1.00;;;;;;5111369;28;20459;-61
2022/04/14 12:52:29;;;;;;;9.77;8.87;;;22.90;1.00;;;;;;5100651;28;20429;-60
2022/04/14 12:54:55;;;;;;;10.10;9.10;;;23.00;1.00;;;;;;5093471;28;20433;-61